Terminal Aerodrome Forecast
Issued by NWS Caribou, ME

Home | Current Version | Previous Version | Text Only | Print | Product List | Glossary On
Versions: 1 2 3 4 5 6 7 8 9 10 11 12 13 14
000
FTUS41 KCAR 022320
TAFCAR
TAF
KCAR 022320Z 0300/0324 30012G23KT P6SM FEW035 BKN080
     FM031100 31012KT P6SM SKC
     FM032200 19006KT P6SM SCT120 BKN200=

USA.gov is the U.S. government's official web portal to all federal, state and local government web resources and services.